createdAt,value
2018-05-14T00:01:19.050Z,22.50
2018-05-14T00:03:47.681Z,20.10
2018-05-14T00:06:16.819Z,27.17
2018-05-14T00:08:45.228Z,26.13
2018-05-14T00:11:16.226Z,22.23
2018-05-14T00:13:44.263Z,27.63
2018-05-14T00:16:12.288Z,25.27
2018-05-14T00:18:40.349Z,33.20
2018-05-14T00:21:13.733Z,27.63
2018-05-14T00:23:42.906Z,34.90
2018-05-14T00:26:12.652Z,28.57
2018-05-14T00:28:40.728Z,35.33
2018-05-14T00:31:13.798Z,32.47
2018-05-14T00:33:45.256Z,29.50
2018-05-14T00:36:13.725Z,29.90
2018-05-14T00:38:51.030Z,32.60
2018-05-14T00:41:19.881Z,37.50
2018-05-14T00:43:54.192Z,36.27
2018-05-14T00:46:23.046Z,47.43
2018-05-14T00:48:52.716Z,51.33
2018-05-14T00:51:21.563Z,128.17
2018-05-14T00:53:57.386Z,56.53
2018-05-14T00:56:25.875Z,129.03
2018-05-14T00:58:55.059Z,90.00
2018-05-14T01:01:24.105Z,269.90
2018-05-14T01:03:53.948Z,240.70
2018-05-14T01:06:21.633Z,400.10
2018-05-14T01:08:51.646Z,356.47
2018-05-14T01:11:20.076Z,398.87
2018-05-14T01:13:50.299Z,358.43
2018-05-14T01:16:18.748Z,67.43
2018-05-14T01:18:50.969Z,260.77
2018-05-14T01:21:19.013Z,102.57
2018-05-14T01:23:58.468Z,398.37
2018-05-14T01:26:26.159Z,295.97
2018-05-14T01:29:03.832Z,250.97
2018-05-14T01:31:33.023Z,350.43
2018-05-14T01:34:16.269Z,323.23
2018-05-14T01:36:43.930Z,236.03
2018-05-14T01:39:13.956Z,163.70
2018-05-14T01:41:42.822Z,227.50
2018-05-14T01:44:21.897Z,170.40
2018-05-14T01:46:50.356Z,90.97
2018-05-14T01:49:19.213Z,207.30
2018-05-14T01:51:46.917Z,228.87
2018-05-14T01:54:22.907Z,134.10
2018-05-14T01:56:51.009Z,132.53
2018-05-14T01:59:24.000Z,161.67
2018-05-14T02:01:52.117Z,148.57
2018-05-14T02:04:41.627Z,110.60
2018-05-14T02:07:10.428Z,125.03
2018-05-14T02:12:34.435Z,66.90
2018-05-14T02:15:02.521Z,119.97
2018-05-14T02:20:42.986Z,102.63
2018-05-14T02:23:10.694Z,125.13
2018-05-14T02:25:39.133Z,133.50
2018-05-14T02:28:28.480Z,147.33
2018-05-14T02:30:56.559Z,125.33
2018-05-14T02:33:25.014Z,236.93
2018-05-14T02:35:53.463Z,115.50
2018-05-14T02:38:23.320Z,133.63
2018-05-14T02:40:52.575Z,188.37
2018-05-14T02:43:23.358Z,176.33
2018-05-14T02:45:51.810Z,83.33
2018-05-14T02:48:34.278Z,157.10
2018-05-14T02:51:03.131Z,124.80
2018-05-14T02:53:42.941Z,177.53
2018-05-14T02:56:11.099Z,149.07
2018-05-14T02:59:02.673Z,83.30
2018-05-14T03:01:31.154Z,174.73
2018-05-14T03:04:05.050Z,81.10
2018-05-14T03:06:33.891Z,64.60
2018-05-14T03:09:27.519Z,50.90
2018-05-14T03:11:56.116Z,27.57
2018-05-14T03:14:24.558Z,21.37
2018-05-14T03:16:53.365Z,30.17
2018-05-14T03:19:25.674Z,22.80
2018-05-14T03:21:53.567Z,21.30
2018-05-14T03:24:22.179Z,23.13
2018-05-14T03:26:50.265Z,22.37
2018-05-14T03:29:21.666Z,21.43
2018-05-14T03:31:50.111Z,20.13
2018-05-14T03:34:21.274Z,22.67
2018-05-14T03:36:50.465Z,21.27
2018-05-14T03:39:21.911Z,19.50
2018-05-14T03:41:50.016Z,18.03
2018-05-14T03:44:21.751Z,18.53
2018-05-14T03:46:50.219Z,17.97
2018-05-14T03:49:19.216Z,17.83
2018-05-14T03:51:48.046Z,18.60
2018-05-14T03:54:24.400Z,18.30
2018-05-14T03:56:52.849Z,18.43
2018-05-14T03:59:28.651Z,18.70
2018-05-14T04:02:25.913Z,18.43
2018-05-14T04:05:05.897Z,17.57
2018-05-14T04:07:34.751Z,17.07
2018-05-14T04:10:03.927Z,17.00
2018-05-14T04:12:32.497Z,15.47
2018-05-14T04:15:02.975Z,15.00
2018-05-14T04:17:31.382Z,16.60
2018-05-14T04:20:01.805Z,16.87
2018-05-14T04:22:29.490Z,16.53
2018-05-14T04:24:58.959Z,13.80
2018-05-14T04:27:27.372Z,13.97
2018-05-14T04:29:56.909Z,11.40
2018-05-14T04:32:25.020Z,15.67
2018-05-14T04:34:54.795Z,14.07
2018-05-14T04:37:23.666Z,12.87
2018-05-14T04:39:51.889Z,13.83
2018-05-14T04:42:19.531Z,15.67
2018-05-14T04:44:47.992Z,14.90
2018-05-14T04:47:17.152Z,11.47
2018-05-14T04:49:52.822Z,10.93
2018-05-14T04:52:21.669Z,12.80
2018-05-14T04:54:51.019Z,13.53
2018-05-14T04:57:19.821Z,11.63
2018-05-14T04:59:47.528Z,11.50
2018-05-14T05:02:15.190Z,10.50
2018-05-14T05:04:44.492Z,12.00
2018-05-14T05:07:12.548Z,10.90
2018-05-14T05:09:42.116Z,11.50
2018-05-14T05:12:10.255Z,11.77
2018-05-14T05:14:38.807Z,11.33
2018-05-14T05:17:06.532Z,17.30
2018-05-14T05:19:35.865Z,15.67
2018-05-14T05:22:04.347Z,13.17
2018-05-14T05:24:32.122Z,13.67
2018-05-14T05:27:00.262Z,10.93
2018-05-14T05:29:28.989Z,11.77
2018-05-14T05:31:57.051Z,11.47
2018-05-14T05:34:28.718Z,14.67
2018-05-14T05:36:56.384Z,11.70
2018-05-14T05:39:29.072Z,10.87
2018-05-14T05:41:57.120Z,11.47
2018-05-14T05:44:25.452Z,11.60
2018-05-14T05:46:53.878Z,10.53
2018-05-14T05:49:22.072Z,13.07
2018-05-14T05:51:51.235Z,12.93
2018-05-14T05:54:20.542Z,12.43
2018-05-14T05:56:48.752Z,11.33
2018-05-14T05:59:16.876Z,9.97
2018-05-14T06:01:44.549Z,10.17
2018-05-14T06:04:12.728Z,14.37
2018-05-14T06:06:41.191Z,16.23
2018-05-14T06:09:10.321Z,10.47
2018-05-14T06:11:38.076Z,13.10
2018-05-14T06:14:06.242Z,12.70
2018-05-14T06:16:33.912Z,12.50
2018-05-14T06:19:01.670Z,11.37
2018-05-14T06:21:29.355Z,12.57
2018-05-14T06:23:57.896Z,9.43
2018-05-14T06:26:25.678Z,9.77
2018-05-14T06:28:54.247Z,9.73
2018-05-14T06:31:22.336Z,8.27
2018-05-14T06:33:50.007Z,12.63
2018-05-14T06:36:18.194Z,9.43
2018-05-14T06:38:46.681Z,10.23
2018-05-14T06:41:15.096Z,9.90
2018-05-14T06:43:42.805Z,13.63
2018-05-14T06:46:12.007Z,10.37
2018-05-14T06:48:40.463Z,12.30
2018-05-14T06:51:08.863Z,12.90
2018-05-14T06:53:36.730Z,13.00
2018-05-14T06:56:05.166Z,10.40
2018-05-14T06:58:33.589Z,10.07
2018-05-14T07:01:01.271Z,12.83
2018-05-14T07:03:29.823Z,13.30
2018-05-14T07:05:58.255Z,13.33
2018-05-14T07:08:25.951Z,10.37
2018-05-14T07:10:54.026Z,16.33
2018-05-14T07:13:22.112Z,9.37
2018-05-14T07:15:49.778Z,13.40
2018-05-14T07:18:17.974Z,12.73
2018-05-14T07:20:46.394Z,18.20
2018-05-14T07:23:15.618Z,10.10
2018-05-14T07:25:43.295Z,13.30
2018-05-14T07:28:11.371Z,13.77
2018-05-14T07:30:39.813Z,9.60
2018-05-14T07:33:07.899Z,12.70
2018-05-14T07:35:36.463Z,13.10
2018-05-14T07:38:04.173Z,9.47
2018-05-14T07:40:32.692Z,9.63
2018-05-14T07:43:01.087Z,15.40
2018-05-14T07:45:29.120Z,15.30
2018-05-14T07:47:57.173Z,12.33
2018-05-14T07:50:26.120Z,12.37
2018-05-14T07:52:54.788Z,11.37
2018-05-14T07:55:22.456Z,11.87
2018-05-14T07:57:51.331Z,10.23
2018-05-14T08:00:19.759Z,11.17
2018-05-14T08:02:49.257Z,11.60
2018-05-14T08:05:16.969Z,14.43
2018-05-14T08:07:45.983Z,8.17
2018-05-14T08:10:13.663Z,8.13
2018-05-14T08:12:42.142Z,10.50
2018-05-14T08:15:10.222Z,14.03
2018-05-14T08:17:37.896Z,7.87
2018-05-14T08:20:06.696Z,13.10
2018-05-14T08:22:35.193Z,12.40
2018-05-14T08:25:04.026Z,8.77
2018-05-14T08:27:32.542Z,14.60
2018-05-14T08:30:00.613Z,11.33
2018-05-14T08:32:28.277Z,11.77
2018-05-14T08:34:56.372Z,11.10
2018-05-14T08:37:24.978Z,8.53
2018-05-14T08:39:53.742Z,13.13
2018-05-14T08:42:21.884Z,10.27
2018-05-14T08:44:49.483Z,11.50
2018-05-14T08:47:18.473Z,20.63
2018-05-14T08:49:47.002Z,7.00
2018-05-14T08:52:15.098Z,7.97
2018-05-14T08:54:42.850Z,9.47
2018-05-14T08:57:11.844Z,9.27
2018-05-14T08:59:39.921Z,8.70
2018-05-14T09:02:08.936Z,12.63
2018-05-14T09:04:37.387Z,8.77
2018-05-14T09:07:05.078Z,8.10
2018-05-14T09:09:33.155Z,10.73
2018-05-14T09:12:02.176Z,6.77
2018-05-14T09:14:30.620Z,8.17
2018-05-14T09:16:59.116Z,7.93
2018-05-14T09:19:28.134Z,8.97
2018-05-14T09:21:55.895Z,6.17
2018-05-14T09:24:23.934Z,9.17
2018-05-14T09:26:51.718Z,9.47
2018-05-14T09:29:19.758Z,10.90
2018-05-14T09:31:48.571Z,8.17
2018-05-14T09:34:17.003Z,9.30
2018-05-14T09:36:45.068Z,6.30
2018-05-14T09:39:13.148Z,7.37
2018-05-14T09:41:40.786Z,7.03
2018-05-14T09:44:09.618Z,6.37
2018-05-14T09:46:37.680Z,8.50
2018-05-14T09:49:05.343Z,6.77
2018-05-14T09:51:33.978Z,7.40
2018-05-14T09:54:02.419Z,8.70
2018-05-14T09:56:30.904Z,8.73
2018-05-14T09:58:59.364Z,9.67
2018-05-14T10:01:27.012Z,5.93
2018-05-14T10:03:54.696Z,9.20
2018-05-14T10:06:22.765Z,8.37
2018-05-14T10:08:51.204Z,5.37
2018-05-14T10:11:19.270Z,7.53
2018-05-14T10:13:48.171Z,6.30
2018-05-14T10:16:16.312Z,10.13
2018-05-14T10:18:45.176Z,10.10
2018-05-14T10:21:13.988Z,9.40
2018-05-14T10:23:42.485Z,7.37
2018-05-14T10:26:10.953Z,8.87
2018-05-14T10:28:38.618Z,6.40
2018-05-14T10:31:06.280Z,9.40
2018-05-14T10:33:35.062Z,8.93
2018-05-14T10:36:03.161Z,5.23
2018-05-14T10:38:31.601Z,4.03
2018-05-14T10:41:00.435Z,6.70
2018-05-14T10:43:28.870Z,8.10
2018-05-14T10:45:56.513Z,9.13
2018-05-14T10:48:24.610Z,7.63
2018-05-14T10:50:52.260Z,7.40
2018-05-14T10:53:21.135Z,4.73
2018-05-14T10:55:49.529Z,3.73
2018-05-14T10:58:18.335Z,6.90
2018-05-14T11:00:46.129Z,6.57
2018-05-14T11:03:14.182Z,6.63
2018-05-14T11:05:41.881Z,10.07
2018-05-14T11:08:11.081Z,5.33
2018-05-14T11:10:40.334Z,12.60
2018-05-14T11:13:07.956Z,4.57
2018-05-14T11:15:36.379Z,4.40
2018-05-14T11:18:04.262Z,3.40
2018-05-14T11:20:33.317Z,6.30
2018-05-14T11:23:00.960Z,4.23
2018-05-14T11:25:29.806Z,3.73
2018-05-14T11:27:57.601Z,7.37
2018-05-14T11:30:25.956Z,5.07
2018-05-14T11:32:54.858Z,4.00
2018-05-14T11:35:24.028Z,8.40
2018-05-14T11:37:52.134Z,5.03
2018-05-14T11:40:21.017Z,3.13
2018-05-14T11:42:50.195Z,5.17
2018-05-14T11:45:18.421Z,6.50
2018-05-14T11:47:47.229Z,3.57
2018-05-14T11:50:14.879Z,4.50
2018-05-14T11:52:43.989Z,6.97
2018-05-14T11:55:12.456Z,7.03
2018-05-14T11:57:40.521Z,6.00
2018-05-14T12:00:08.318Z,7.07
2018-05-14T12:02:37.127Z,3.60
2018-05-14T12:05:05.600Z,3.13
2018-05-14T12:07:34.703Z,7.17
2018-05-14T12:10:02.483Z,4.40
2018-05-14T12:12:30.049Z,4.33
2018-05-14T12:14:59.152Z,4.97
2018-05-14T12:17:27.320Z,8.10
2018-05-14T12:19:55.015Z,7.43
2018-05-14T12:22:24.041Z,4.30
2018-05-14T12:24:51.831Z,7.93
2018-05-14T12:27:19.472Z,5.93
2018-05-14T12:29:47.521Z,3.40
2018-05-14T12:32:15.230Z,4.40
2018-05-14T12:34:43.686Z,5.83
2018-05-14T12:37:12.108Z,5.37
2018-05-14T12:39:41.674Z,7.97
2018-05-14T12:42:09.705Z,5.17
2018-05-14T12:44:37.317Z,5.57
2018-05-14T12:47:05.740Z,6.00
2018-05-14T12:49:34.758Z,4.63
2018-05-14T12:52:02.603Z,5.87
2018-05-14T12:54:30.168Z,6.50
2018-05-14T12:56:57.846Z,3.60
2018-05-14T12:59:26.344Z,10.50
2018-05-14T13:01:54.812Z,4.00
2018-05-14T13:04:22.501Z,3.70
2018-05-14T13:06:51.674Z,7.13
2018-05-14T13:09:19.352Z,5.87
2018-05-14T13:11:47.038Z,3.60
2018-05-14T13:14:15.489Z,5.63
2018-05-14T13:16:44.447Z,5.17
2018-05-14T13:19:12.945Z,6.67
2018-05-14T13:21:40.613Z,5.90
2018-05-14T13:24:08.802Z,10.33
2018-05-14T13:26:37.234Z,4.90
2018-05-14T13:29:05.699Z,6.67
2018-05-14T13:31:34.877Z,3.87
2018-05-14T13:34:02.618Z,8.23
2018-05-14T13:36:31.062Z,5.70
2018-05-14T13:38:58.713Z,7.57
2018-05-14T13:41:26.795Z,5.70
2018-05-14T13:43:55.231Z,11.93
2018-05-14T13:46:22.916Z,8.03
2018-05-14T13:48:51.350Z,7.57
2018-05-14T13:51:19.047Z,5.97
2018-05-14T13:53:47.149Z,5.80
2018-05-14T13:56:15.968Z,8.00
2018-05-14T13:58:44.784Z,7.63
2018-05-14T14:01:12.466Z,7.17
2018-05-14T14:03:41.489Z,5.53
2018-05-14T14:06:09.614Z,7.77
2018-05-14T14:08:37.676Z,12.53
2018-05-14T14:11:05.328Z,6.53
2018-05-14T14:13:33.033Z,5.87
2018-05-14T14:16:01.121Z,7.80
2018-05-14T14:18:29.591Z,9.57
2018-05-14T14:20:57.252Z,6.67
2018-05-14T14:23:25.959Z,9.63
2018-05-14T14:25:54.333Z,6.30
2018-05-14T14:28:25.248Z,8.90
2018-05-14T14:30:54.232Z,6.00
2018-05-14T14:33:22.780Z,5.80
2018-05-14T14:35:50.559Z,7.97
2018-05-14T14:38:19.114Z,6.70
2018-05-14T14:40:47.881Z,9.33
2018-05-14T14:43:16.124Z,7.37
2018-05-14T14:45:44.621Z,6.17
2018-05-14T14:48:16.146Z,7.47
2018-05-14T14:50:44.263Z,8.57
2018-05-14T14:53:14.441Z,7.40
2018-05-14T14:55:42.892Z,6.80
2018-05-14T14:58:10.703Z,8.87
2018-05-14T15:00:38.846Z,5.43
2018-05-14T15:03:10.640Z,11.37
2018-05-14T15:05:39.678Z,8.00
2018-05-14T15:08:07.442Z,6.40
2018-05-14T15:10:35.519Z,10.40
2018-05-14T15:13:04.130Z,6.77
2018-05-14T15:15:33.414Z,6.10
2018-05-14T15:18:03.186Z,10.53
2018-05-14T15:20:31.628Z,7.20
2018-05-14T15:23:02.398Z,9.93
2018-05-14T15:25:30.111Z,7.57
2018-05-14T15:27:58.265Z,7.30
2018-05-14T15:30:26.413Z,11.63
2018-05-14T15:32:54.214Z,6.50
2018-05-14T15:35:21.898Z,11.47
2018-05-14T15:37:50.048Z,6.87
2018-05-14T15:40:17.728Z,8.95
2018-05-14T15:42:49.448Z,9.65
2018-05-14T15:45:17.189Z,69.78
2018-05-14T15:47:45.430Z,121.47
2018-05-14T15:50:13.492Z,44.28
2018-05-14T15:52:41.704Z,26.35
2018-05-14T15:55:10.123Z,6.75
2018-05-14T15:57:38.892Z,6.70
2018-05-14T16:00:06.637Z,14.07
2018-05-14T16:02:35.201Z,14.55
2018-05-14T16:05:03.447Z,17.80
2018-05-14T16:07:32.011Z,27.37
2018-05-14T16:09:59.822Z,8.65
2018-05-14T16:12:30.733Z,6.97
2018-05-14T16:14:59.189Z,5.00
2018-05-14T16:17:27.773Z,8.13
2018-05-14T16:19:56.215Z,8.45
2018-05-14T16:22:23.879Z,7.37
2018-05-14T16:24:53.198Z,14.60
2018-05-14T16:27:21.922Z,9.10
2018-05-14T16:29:50.695Z,5.37
2018-05-14T16:32:18.416Z,6.22
2018-05-14T16:34:46.090Z,4.72
2018-05-14T16:37:15.913Z,4.45
2018-05-14T16:39:44.363Z,5.80
2018-05-14T16:42:12.075Z,10.55
2018-05-14T16:44:40.538Z,6.03
2018-05-14T16:47:08.208Z,6.62
2018-05-14T16:49:36.778Z,4.25
2018-05-14T16:52:04.847Z,6.13
2018-05-14T16:54:32.513Z,13.40
2018-05-14T16:57:01.181Z,7.73
2018-05-14T16:59:29.608Z,5.77
2018-05-14T17:01:59.263Z,3.90
2018-05-14T17:04:27.320Z,4.33
2018-05-14T17:06:55.578Z,4.90
2018-05-14T17:09:24.541Z,5.70
2018-05-14T17:11:54.755Z,8.43
2018-05-14T17:14:23.270Z,7.33
2018-05-14T17:16:51.624Z,11.93
2018-05-14T17:19:20.861Z,8.40
2018-05-14T17:21:49.320Z,11.97
2018-05-14T17:24:19.167Z,7.67
2018-05-14T17:26:46.839Z,6.97
2018-05-14T17:29:14.851Z,5.37
2018-05-14T17:31:42.929Z,6.70
2018-05-14T17:34:13.011Z,7.20
2018-05-14T17:36:41.878Z,8.90
2018-05-14T17:39:13.767Z,8.17
2018-05-14T17:41:42.566Z,6.17
2018-05-14T17:44:18.763Z,12.73
2018-05-14T17:46:47.592Z,8.97
2018-05-14T17:49:16.298Z,5.20
2018-05-14T17:51:43.969Z,5.23
2018-05-14T17:54:14.211Z,12.73
2018-05-14T17:56:42.387Z,6.53
2018-05-14T17:59:11.710Z,3.77
2018-05-14T18:01:39.410Z,11.83
2018-05-14T18:04:07.819Z,7.13
2018-05-14T18:06:35.921Z,8.37
2018-05-14T18:09:05.899Z,7.17
2018-05-14T18:11:34.926Z,5.77
2018-05-14T18:14:03.481Z,7.87
2018-05-14T18:16:32.523Z,7.27
2018-05-14T18:19:06.939Z,6.63
2018-05-14T18:21:38.488Z,6.67
2018-05-14T18:24:07.701Z,9.13
2018-05-14T18:26:41.167Z,3.77
2018-05-14T18:29:10.429Z,9.47
2018-05-14T18:31:43.671Z,8.10
2018-05-14T18:34:21.710Z,5.97
2018-05-14T18:36:51.438Z,12.70
2018-05-14T18:39:20.643Z,6.53
2018-05-14T18:41:54.358Z,8.87
2018-05-14T18:44:39.009Z,8.67
2018-05-14T18:47:07.116Z,8.73
2018-05-14T18:49:37.134Z,14.00
2018-05-14T18:52:05.248Z,8.87
2018-05-14T18:54:32.974Z,8.00
2018-05-14T18:57:00.684Z,6.37
2018-05-14T18:59:31.724Z,9.83
2018-05-14T19:01:59.405Z,8.10
2018-05-14T19:04:38.185Z,5.73
2018-05-14T19:07:06.700Z,8.00
2018-05-14T19:09:35.790Z,9.47
2018-05-14T19:12:05.036Z,7.40
2018-05-14T19:14:36.707Z,5.53
2018-05-14T19:17:10.789Z,6.27
2018-05-14T19:19:39.356Z,4.83
2018-05-14T19:22:08.230Z,10.63
2018-05-14T19:24:39.065Z,8.73
2018-05-14T19:27:07.631Z,6.10
2018-05-14T19:29:36.146Z,6.40
2018-05-14T19:32:04.949Z,16.17
2018-05-14T19:34:39.739Z,8.50
2018-05-14T19:37:07.775Z,6.63
2018-05-14T19:39:42.585Z,14.57
2018-05-14T19:42:10.622Z,4.27
2018-05-14T19:44:41.463Z,6.13
2018-05-14T19:47:09.945Z,7.17
2018-05-14T19:49:39.823Z,8.87
2018-05-14T19:52:08.220Z,4.87
2018-05-14T19:54:36.746Z,9.73
2018-05-14T19:57:05.931Z,7.30
2018-05-14T19:59:34.972Z,3.93
2018-05-14T20:02:03.193Z,6.60
2018-05-14T20:04:33.991Z,8.07
2018-05-14T20:07:02.057Z,5.73
2018-05-14T20:09:30.535Z,5.47
2018-05-14T20:11:58.942Z,6.93
2018-05-14T20:14:27.585Z,6.73
2018-05-14T20:16:56.570Z,8.53
2018-05-14T20:19:43.763Z,5.13
2018-05-14T20:22:12.218Z,5.27
2018-05-14T20:24:45.849Z,5.53
2018-05-14T20:27:13.537Z,7.67
2018-05-14T20:29:47.761Z,7.93
2018-05-14T20:32:15.820Z,7.20
2018-05-14T20:34:47.083Z,5.27
2018-05-14T20:37:15.273Z,6.20
2018-05-14T20:39:43.799Z,8.37
2018-05-14T20:42:12.674Z,6.53
2018-05-14T20:44:59.440Z,6.70
2018-05-14T20:47:27.093Z,5.40
2018-05-14T20:49:58.400Z,6.70
2018-05-14T20:52:26.893Z,4.53
2018-05-14T20:55:00.871Z,4.30
2018-05-14T20:57:29.703Z,6.80
2018-05-14T20:59:58.386Z,8.03
2018-05-14T21:02:27.259Z,6.70
2018-05-14T21:04:56.070Z,7.47
2018-05-14T21:07:24.482Z,6.97
2018-05-14T21:09:53.655Z,6.27
2018-05-14T21:12:22.066Z,8.10
2018-05-14T21:14:50.790Z,7.07
2018-05-14T21:17:19.257Z,5.53
2018-05-14T21:19:58.356Z,10.73
2018-05-14T21:22:26.420Z,6.30
2018-05-14T21:25:04.812Z,5.57
2018-05-14T21:27:32.495Z,5.90
2018-05-14T21:33:03.260Z,5.70
2018-05-14T21:35:31.685Z,4.57
2018-05-14T21:38:12.447Z,5.13
2018-05-14T21:40:40.085Z,7.17
2018-05-14T21:43:08.535Z,6.03
2018-05-14T21:45:36.633Z,4.70
2018-05-14T21:48:04.703Z,8.13
2018-05-14T21:50:33.172Z,5.63
2018-05-14T21:53:03.557Z,13.33
2018-05-14T21:55:31.610Z,6.20
2018-05-14T21:58:00.666Z,7.33
2018-05-14T22:00:29.541Z,9.33
2018-05-14T22:02:59.223Z,6.73
2018-05-14T22:05:28.062Z,5.73
2018-05-14T22:08:13.437Z,7.23
2018-05-14T22:10:42.635Z,4.97
2018-05-14T22:13:13.064Z,7.77
2018-05-14T22:15:41.526Z,3.63
2018-05-14T22:18:09.998Z,7.50
2018-05-14T22:20:37.754Z,6.37
2018-05-14T22:23:07.237Z,6.70
2018-05-14T22:25:34.901Z,7.03
2018-05-14T22:28:04.513Z,5.27
2018-05-14T22:30:32.589Z,4.63
2018-05-14T22:33:09.540Z,6.80
2018-05-14T22:35:37.241Z,7.50
2018-05-14T22:38:08.293Z,7.80
2018-05-14T22:40:36.790Z,5.93
2018-05-14T22:43:19.788Z,8.03
2018-05-14T22:45:47.871Z,7.27
2018-05-14T22:48:16.328Z,8.70
2018-05-14T22:50:44.428Z,5.80
2018-05-14T22:53:14.514Z,3.67
2018-05-14T22:55:43.549Z,5.67
2018-05-14T22:58:13.609Z,7.73
2018-05-14T23:00:42.040Z,6.53
2018-05-14T23:03:09.724Z,5.10
2018-05-14T23:05:37.776Z,11.60
2018-05-14T23:08:09.327Z,7.37
2018-05-14T23:10:37.404Z,5.70
2018-05-14T23:13:17.527Z,5.00
2018-05-14T23:15:45.588Z,13.53
2018-05-14T23:18:21.117Z,6.77
2018-05-14T23:20:49.527Z,8.00
2018-05-14T23:23:19.757Z,4.87
2018-05-14T23:25:47.428Z,4.53
2018-05-14T23:28:18.343Z,7.23
2018-05-14T23:30:46.444Z,6.27
2018-05-14T23:33:17.889Z,5.17
2018-05-14T23:35:46.915Z,7.03
2018-05-14T23:38:39.137Z,5.73
2018-05-14T23:41:07.717Z,6.83
2018-05-14T23:43:39.418Z,5.20
2018-05-14T23:46:07.111Z,4.87
2018-05-14T23:48:35.807Z,6.20
2018-05-14T23:51:04.241Z,5.77
2018-05-14T23:53:36.565Z,5.33
2018-05-14T23:56:04.649Z,4.77
2018-05-14T23:58:33.664Z,7.90
